< < Back
Terminal Aerodrome Forecast


Current Version              Previous Versions:   1  2  3  4  5  6  7  8  9  

Terminal Aerodrome Forecast

456
FTUS42 KFFC 220302 AAA
TAFMCN
TAF AMD
KMCN 220302Z 2203/2224 33010G18KT P6SM SCT040
     FM220500 31009KT P6SM FEW035
     FM221000 VRB04KT P6SM SKC
     FM221400 02005KT P6SM SKC
     FM221700 05006KT P6SM FEW040=



Latest METAR

204
SAUS80 KWBC 221900
MTRMCN
METAR KMCN 221853Z VRB03KT 10SM CLR 26/12 A3017 RMK AO2 SLP213
T02560122


USA.gov is the U.S. government's official web portal to all federal, state and local government web resources and services.